createdAt,value
2022-08-29T00:01:22.982Z,76.50
2022-08-29T00:03:50.077Z,76.50
2022-08-29T00:06:16.960Z,76.70
2022-08-29T00:08:43.875Z,76.70
2022-08-29T00:11:10.696Z,76.80
2022-08-29T00:13:37.626Z,76.70
2022-08-29T00:16:04.897Z,76.80
2022-08-29T00:18:36.902Z,76.80
2022-08-29T00:21:06.056Z,77.10
2022-08-29T00:23:33.408Z,77.20
2022-08-29T00:26:00.425Z,77.30
2022-08-29T00:28:27.290Z,77.70
2022-08-29T00:30:54.306Z,77.90
2022-08-29T00:33:21.319Z,78.10
2022-08-29T00:35:48.262Z,78.20
2022-08-29T00:38:19.208Z,78.00
2022-08-29T00:40:57.433Z,78.40
2022-08-29T00:43:30.414Z,78.70
2022-08-29T00:46:09.409Z,78.80
2022-08-29T00:48:39.597Z,79.10
2022-08-29T00:51:15.386Z,79.20
2022-08-29T00:53:49.862Z,79.20
2022-08-29T00:56:18.546Z,79.30
2022-08-29T00:58:58.840Z,79.60
2022-08-29T01:01:26.123Z,79.90
2022-08-29T01:03:54.442Z,79.90
2022-08-29T01:06:22.395Z,79.60
2022-08-29T01:08:57.271Z,79.70
2022-08-29T01:11:47.730Z,80.00
2022-08-29T01:14:21.450Z,80.00
2022-08-29T01:16:52.259Z,80.50
2022-08-29T01:20:10.352Z,80.00
2022-08-29T01:23:00.710Z,79.90
2022-08-29T01:25:34.657Z,80.00
2022-08-29T01:28:16.639Z,80.40
2022-08-29T01:31:12.782Z,80.50
2022-08-29T01:33:48.076Z,80.70
2022-08-29T01:36:20.338Z,80.60
2022-08-29T01:38:47.539Z,80.60
2022-08-29T01:41:14.669Z,80.80
2022-08-29T01:43:51.824Z,81.30
2022-08-29T01:46:32.250Z,81.50
2022-08-29T01:49:02.446Z,81.70
2022-08-29T01:51:29.497Z,81.90
2022-08-29T01:53:56.630Z,82.00
2022-08-29T01:56:36.016Z,82.20
2022-08-29T01:59:07.682Z,82.60
2022-08-29T02:01:40.352Z,82.60
2022-08-29T02:04:08.993Z,82.50
2022-08-29T02:06:37.324Z,82.50
2022-08-29T02:09:05.817Z,82.50
2022-08-29T02:11:33.143Z,82.50
2022-08-29T02:14:00.260Z,82.80
2022-08-29T02:16:29.859Z,82.70
2022-08-29T02:18:57.905Z,83.00
2022-08-29T02:21:29.169Z,82.90
2022-08-29T02:24:15.957Z,82.90
2022-08-29T02:26:48.446Z,82.80
2022-08-29T02:29:15.348Z,83.30
2022-08-29T02:31:43.382Z,82.80
2022-08-29T02:34:11.457Z,82.90
2022-08-29T02:36:38.889Z,82.80
2022-08-29T02:39:08.890Z,83.50
2022-08-29T02:41:36.102Z,83.00
2022-08-29T02:44:03.881Z,83.10
2022-08-29T02:46:31.285Z,83.40
2022-08-29T02:49:01.503Z,83.40
2022-08-29T02:51:33.598Z,83.40
2022-08-29T02:54:02.151Z,83.50
2022-08-29T02:56:29.928Z,83.80
2022-08-29T02:58:57.959Z,84.00
2022-08-29T03:01:26.188Z,84.10
2022-08-29T03:03:54.114Z,83.90
2022-08-29T03:06:21.802Z,83.80
2022-08-29T03:08:50.474Z,83.90
2022-08-29T03:11:18.216Z,84.00
2022-08-29T03:13:45.757Z,84.00
2022-08-29T03:16:13.920Z,84.00
2022-08-29T03:18:41.596Z,84.20
2022-08-29T03:21:24.834Z,84.40
2022-08-29T03:23:52.705Z,84.50
2022-08-29T03:26:19.827Z,84.40
2022-08-29T03:28:47.214Z,84.50
2022-08-29T03:31:15.034Z,84.50
2022-08-29T03:33:42.399Z,84.80
2022-08-29T03:36:14.752Z,84.80
2022-08-29T03:38:43.955Z,85.10
2022-08-29T03:41:12.276Z,85.40
2022-08-29T03:43:39.233Z,85.70
2022-08-29T03:46:06.242Z,86.00
2022-08-29T03:48:33.729Z,86.20
2022-08-29T03:51:00.766Z,86.20
2022-08-29T03:53:28.017Z,86.40
2022-08-29T03:55:55.034Z,86.40
2022-08-29T03:58:22.019Z,86.40
2022-08-29T04:00:49.347Z,86.50
2022-08-29T04:03:16.527Z,86.70
2022-08-29T04:05:43.504Z,86.10
2022-08-29T04:08:10.654Z,86.20
2022-08-29T04:10:41.583Z,86.30
2022-08-29T04:13:09.435Z,86.10
2022-08-29T04:15:37.323Z,86.00
2022-08-29T04:18:07.137Z,86.10
2022-08-29T04:20:38.956Z,86.20
2022-08-29T04:23:06.718Z,86.70
2022-08-29T04:25:37.598Z,86.70
2022-08-29T04:28:12.446Z,86.90
2022-08-29T04:30:40.156Z,86.90
2022-08-29T04:33:07.363Z,87.10
2022-08-29T04:35:35.466Z,87.10
2022-08-29T04:38:02.513Z,87.00
2022-08-29T04:40:29.720Z,87.30
2022-08-29T04:42:59.297Z,87.60
2022-08-29T04:45:27.137Z,87.70
2022-08-29T04:47:53.978Z,87.90
2022-08-29T04:50:23.485Z,87.80
2022-08-29T04:52:56.179Z,88.20
2022-08-29T04:55:25.609Z,88.10
2022-08-29T04:57:56.356Z,88.50
2022-08-29T05:00:28.223Z,88.50
2022-08-29T05:02:55.791Z,88.30
2022-08-29T05:05:22.880Z,88.30
2022-08-29T05:07:55.062Z,89.00
2022-08-29T05:10:22.695Z,88.60
2022-08-29T05:12:49.805Z,88.70
2022-08-29T05:15:17.179Z,88.70
2022-08-29T05:17:44.700Z,88.80
2022-08-29T05:20:13.463Z,88.90
2022-08-29T05:22:42.627Z,88.90
2022-08-29T05:25:17.392Z,89.00
2022-08-29T05:27:46.255Z,89.20
2022-08-29T05:30:19.834Z,89.30
2022-08-29T05:33:02.447Z,89.50
2022-08-29T05:35:29.343Z,89.60
2022-08-29T05:37:56.267Z,89.60
2022-08-29T05:40:23.116Z,89.60
2022-08-29T05:42:50.094Z,89.70
2022-08-29T05:45:16.978Z,89.80
2022-08-29T05:47:43.854Z,89.80
2022-08-29T05:50:11.785Z,89.90
2022-08-29T05:52:38.709Z,89.80
2022-08-29T05:55:06.400Z,89.60
2022-08-29T05:57:33.307Z,89.50
2022-08-29T06:00:00.595Z,89.50
2022-08-29T06:02:27.824Z,89.30
2022-08-29T06:04:54.863Z,89.10
2022-08-29T06:07:21.785Z,88.90
2022-08-29T06:09:52.855Z,89.10
2022-08-29T06:12:20.207Z,88.90
2022-08-29T06:14:51.236Z,89.00
2022-08-29T06:17:18.394Z,88.40
2022-08-29T06:19:45.711Z,88.50
2022-08-29T06:22:12.992Z,88.00
2022-08-29T06:24:40.253Z,87.60
2022-08-29T06:27:12.320Z,87.20
2022-08-29T06:29:43.186Z,86.70
2022-08-29T06:32:11.963Z,86.00
2022-08-29T06:34:39.052Z,86.10
2022-08-29T06:37:06.007Z,86.20
2022-08-29T06:39:32.860Z,85.10
2022-08-29T06:41:59.724Z,84.50
2022-08-29T06:44:26.710Z,84.60
2022-08-29T06:46:58.693Z,83.50
2022-08-29T06:49:25.998Z,83.50
2022-08-29T06:52:05.507Z,83.40
2022-08-29T06:54:51.915Z,83.10
2022-08-29T06:57:47.583Z,83.20
2022-08-29T07:00:21.996Z,82.40
2022-08-29T07:02:52.350Z,82.50
2022-08-29T07:05:21.850Z,81.50
2022-08-29T07:07:49.477Z,80.50
2022-08-29T07:10:22.115Z,79.40
2022-08-29T07:12:51.033Z,78.50
2022-08-29T07:15:19.109Z,78.40
2022-08-29T07:17:46.205Z,77.10
2022-08-29T07:20:14.369Z,77.20
2022-08-29T07:22:41.457Z,76.70
2022-08-29T07:25:10.258Z,75.80
2022-08-29T07:27:37.242Z,75.20
2022-08-29T07:30:06.548Z,74.70
2022-08-29T07:32:33.476Z,74.50
2022-08-29T07:35:00.416Z,74.40
2022-08-29T07:37:27.326Z,73.30
2022-08-29T07:40:00.755Z,73.20
2022-08-29T07:42:27.860Z,71.60
2022-08-29T07:44:54.837Z,70.90
2022-08-29T07:47:22.381Z,69.00
2022-08-29T07:49:49.202Z,67.50
2022-08-29T07:52:19.281Z,67.40
2022-08-29T07:54:46.387Z,66.80
2022-08-29T07:57:17.726Z,66.40
2022-08-29T07:59:44.895Z,65.60
2022-08-29T08:02:12.072Z,65.60
2022-08-29T08:04:40.599Z,64.80
2022-08-29T08:07:13.757Z,65.80
2022-08-29T08:09:41.245Z,64.80
2022-08-29T08:12:09.881Z,64.70
2022-08-29T08:14:37.028Z,65.20
2022-08-29T08:17:04.352Z,64.60
2022-08-29T08:19:31.404Z,64.00
2022-08-29T08:21:59.330Z,62.80
2022-08-29T08:24:26.247Z,63.00
2022-08-29T08:26:53.116Z,62.80
2022-08-29T08:29:20.035Z,62.30
2022-08-29T08:31:51.382Z,61.40
2022-08-29T08:34:19.822Z,61.20
2022-08-29T08:36:47.031Z,61.00
2022-08-29T08:39:14.780Z,61.30
2022-08-29T08:42:08.471Z,61.40
2022-08-29T08:45:08.778Z,61.60
2022-08-29T08:47:44.457Z,61.80
2022-08-29T08:50:29.077Z,61.40
2022-08-29T08:53:21.563Z,60.70
2022-08-29T08:55:54.407Z,59.60
2022-08-29T08:58:36.730Z,59.20
2022-08-29T09:01:29.876Z,59.30
2022-08-29T09:04:19.352Z,58.60
2022-08-29T09:07:16.845Z,59.50
2022-08-29T09:10:18.518Z,59.10
2022-08-29T09:13:06.376Z,58.10
2022-08-29T09:15:46.145Z,58.40
2022-08-29T09:18:44.396Z,57.60
2022-08-29T09:24:35.890Z,58.10
2022-08-29T09:27:03.106Z,58.10
2022-08-29T09:29:32.270Z,57.20
2022-08-29T09:32:20.224Z,56.90
2022-08-29T09:35:08.073Z,56.40
2022-08-29T09:37:36.406Z,55.90
2022-08-29T09:40:19.115Z,55.40
2022-08-29T09:43:02.489Z,55.70
2022-08-29T09:45:31.293Z,55.10
2022-08-29T09:48:17.370Z,54.00
2022-08-29T09:50:45.318Z,52.30
2022-08-29T09:53:24.272Z,51.30
2022-08-29T09:55:53.150Z,50.50
2022-08-29T09:58:20.043Z,49.90
2022-08-29T10:01:18.353Z,48.50
2022-08-29T10:04:02.724Z,48.70
2022-08-29T10:06:45.183Z,49.30
2022-08-29T10:09:28.750Z,49.80
2022-08-29T10:12:09.905Z,50.00
2022-08-29T10:14:56.207Z,49.40
2022-08-29T10:18:14.445Z,50.00
2022-08-29T10:20:56.313Z,51.40
2022-08-29T10:24:24.510Z,52.00
2022-08-29T10:27:06.733Z,51.50
2022-08-29T10:29:39.598Z,51.10
2022-08-29T10:32:33.666Z,50.00
2022-08-29T10:35:20.780Z,49.80
2022-08-29T10:38:02.901Z,47.80
2022-08-29T10:40:49.721Z,47.10
2022-08-29T10:43:41.818Z,46.80
2022-08-29T10:46:33.688Z,47.30
2022-08-29T10:49:22.931Z,45.80
2022-08-29T10:51:59.490Z,45.60
2022-08-29T10:55:07.583Z,46.00
2022-08-29T10:58:05.282Z,44.60
2022-08-29T11:01:06.925Z,44.20
2022-08-29T11:04:08.615Z,43.30
2022-08-29T11:06:43.081Z,43.40
2022-08-29T11:09:18.816Z,43.40
2022-08-29T11:12:06.418Z,43.40
2022-08-29T11:14:49.064Z,42.90
2022-08-29T11:17:20.386Z,42.20
2022-08-29T11:19:56.908Z,42.30
2022-08-29T11:22:35.751Z,42.60
2022-08-29T11:25:12.414Z,43.30
2022-08-29T11:28:04.326Z,44.50
2022-08-29T11:30:46.085Z,43.70
2022-08-29T11:33:47.919Z,44.20
2022-08-29T11:36:54.550Z,43.10
2022-08-29T11:40:01.814Z,42.90
2022-08-29T11:42:55.969Z,42.10
2022-08-29T11:45:37.315Z,42.20
2022-08-29T11:48:29.209Z,42.10
2022-08-29T11:50:57.052Z,41.60
2022-08-29T11:53:35.044Z,42.40
2022-08-29T11:56:31.396Z,42.00
2022-08-29T11:58:59.736Z,42.00
2022-08-29T12:01:35.663Z,41.30
2022-08-29T12:04:54.965Z,40.60
2022-08-29T12:07:37.758Z,40.60
2022-08-29T12:10:12.953Z,40.60
2022-08-29T12:12:58.940Z,40.10
2022-08-29T12:15:35.326Z,39.60
2022-08-29T12:18:09.730Z,39.20
2022-08-29T12:20:41.735Z,39.20
2022-08-29T12:23:11.406Z,39.70
2022-08-29T12:25:55.156Z,39.00
2022-08-29T12:28:46.453Z,39.50
2022-08-29T12:31:56.825Z,39.10
2022-08-29T12:34:42.629Z,39.60
2022-08-29T12:37:42.716Z,39.70
2022-08-29T12:40:57.490Z,37.80
2022-08-29T12:43:42.788Z,38.80
2022-08-29T12:46:40.443Z,38.60
2022-08-29T12:49:22.377Z,38.20
2022-08-29T12:51:57.413Z,39.00
2022-08-29T12:54:39.117Z,38.30
2022-08-29T12:57:18.525Z,38.60
2022-08-29T12:59:53.765Z,38.50
2022-08-29T13:02:39.239Z,38.20
2022-08-29T13:05:26.888Z,38.00
2022-08-29T13:08:13.062Z,36.80
2022-08-29T13:11:04.726Z,36.70
2022-08-29T13:13:32.088Z,36.90
2022-08-29T13:16:03.417Z,35.70
2022-08-29T13:18:33.803Z,36.30
2022-08-29T13:21:20.639Z,36.90
2022-08-29T13:24:08.809Z,37.40
2022-08-29T13:26:43.318Z,38.00
2022-08-29T13:29:41.801Z,38.20
2022-08-29T13:32:24.461Z,37.00
2022-08-29T13:35:13.482Z,37.10
2022-08-29T13:37:46.065Z,36.90
2022-08-29T13:40:42.099Z,36.80
2022-08-29T13:43:30.911Z,35.70
2022-08-29T13:46:14.827Z,35.20
2022-08-29T13:48:43.585Z,35.60
2022-08-29T13:51:11.330Z,35.60
2022-08-29T13:53:38.938Z,35.60
2022-08-29T13:56:31.990Z,35.50
2022-08-29T13:59:01.454Z,36.10
2022-08-29T14:01:30.426Z,35.70
2022-08-29T14:04:01.319Z,34.90
2022-08-29T14:06:33.837Z,34.90
2022-08-29T14:09:02.095Z,34.70
2022-08-29T14:11:29.237Z,35.00
2022-08-29T14:13:56.191Z,36.00
2022-08-29T14:16:24.823Z,36.70
2022-08-29T14:18:53.666Z,36.70
2022-08-29T14:21:20.561Z,36.40
2022-08-29T14:23:48.459Z,35.40
2022-08-29T14:26:15.311Z,35.70
2022-08-29T14:28:47.875Z,36.30
2022-08-29T14:31:15.551Z,35.90
2022-08-29T14:33:42.559Z,36.10
2022-08-29T14:36:12.193Z,36.50
2022-08-29T14:38:39.060Z,35.90
2022-08-29T14:41:05.930Z,36.60
2022-08-29T14:43:36.485Z,36.60
2022-08-29T14:46:07.078Z,36.00
2022-08-29T14:48:34.140Z,35.80
2022-08-29T14:51:01.634Z,35.60
2022-08-29T14:53:28.542Z,35.30
2022-08-29T14:55:56.457Z,35.50
2022-08-29T14:58:23.675Z,35.70
2022-08-29T15:00:51.459Z,36.00
2022-08-29T15:03:22.016Z,35.90
2022-08-29T15:05:48.887Z,36.10
2022-08-29T15:08:19.394Z,36.50
2022-08-29T15:10:46.428Z,36.50
2022-08-29T15:13:13.307Z,36.20
2022-08-29T15:15:40.481Z,35.90
2022-08-29T15:18:08.211Z,36.00
2022-08-29T15:20:37.225Z,35.80
2022-08-29T15:23:05.352Z,36.20
2022-08-29T15:25:35.056Z,36.00
2022-08-29T15:28:02.342Z,35.70
2022-08-29T15:30:29.210Z,35.80
2022-08-29T15:32:56.138Z,35.90
2022-08-29T15:35:23.354Z,35.40
2022-08-29T15:37:50.732Z,36.00
2022-08-29T15:40:17.776Z,35.70
2022-08-29T15:42:45.242Z,36.00
2022-08-29T15:45:12.378Z,36.60
2022-08-29T15:47:40.454Z,37.20
2022-08-29T15:50:13.842Z,37.30
2022-08-29T15:52:40.786Z,37.70
2022-08-29T15:55:08.005Z,37.40
2022-08-29T15:57:40.263Z,37.50
2022-08-29T16:00:29.398Z,37.80
2022-08-29T16:02:59.793Z,38.00
2022-08-29T16:05:26.755Z,38.10
2022-08-29T16:07:53.672Z,39.30
2022-08-29T16:10:20.699Z,39.00
2022-08-29T16:12:47.584Z,38.90
2022-08-29T16:15:14.470Z,39.10
2022-08-29T16:17:41.559Z,39.20
2022-08-29T16:20:11.202Z,38.90
2022-08-29T16:22:41.005Z,38.90
2022-08-29T16:25:11.224Z,39.00
2022-08-29T16:27:38.097Z,39.20
2022-08-29T16:30:07.185Z,39.60
2022-08-29T16:32:35.461Z,40.00
2022-08-29T16:35:02.665Z,40.50
2022-08-29T16:37:29.572Z,40.70
2022-08-29T16:39:56.535Z,40.60
2022-08-29T16:42:27.555Z,40.60
2022-08-29T16:44:57.921Z,40.60
2022-08-29T16:47:24.783Z,40.80
2022-08-29T16:49:53.549Z,41.30
2022-08-29T16:52:20.503Z,41.40
2022-08-29T16:54:47.412Z,41.50
2022-08-29T16:57:16.672Z,41.70
2022-08-29T16:59:43.556Z,41.80
2022-08-29T17:02:10.985Z,41.90
2022-08-29T17:04:38.015Z,41.90
2022-08-29T17:07:05.645Z,42.60
2022-08-29T17:09:32.756Z,42.40
2022-08-29T17:12:02.078Z,42.60
2022-08-29T17:14:29.507Z,42.80
2022-08-29T17:16:56.837Z,42.70
2022-08-29T17:19:24.118Z,43.00
2022-08-29T17:21:51.428Z,43.00
2022-08-29T17:24:18.776Z,43.10
2022-08-29T17:26:48.369Z,43.40
2022-08-29T17:29:16.855Z,43.40
2022-08-29T17:31:44.289Z,43.60
2022-08-29T17:34:12.679Z,44.00
2022-08-29T17:36:41.748Z,43.90
2022-08-29T17:39:09.084Z,44.00
2022-08-29T17:41:37.354Z,44.10
2022-08-29T17:44:09.931Z,44.50
2022-08-29T17:46:36.873Z,44.40
2022-08-29T17:49:10.577Z,44.50
2022-08-29T17:51:39.536Z,44.60
2022-08-29T17:54:14.901Z,44.60
2022-08-29T17:56:58.308Z,44.80
2022-08-29T17:59:30.618Z,45.60
2022-08-29T18:01:58.934Z,45.10
2022-08-29T18:04:26.881Z,45.30
2022-08-29T18:11:10.890Z,45.80
2022-08-29T18:14:30.539Z,46.00
2022-08-29T18:16:57.623Z,46.30
2022-08-29T18:19:24.821Z,46.50
2022-08-29T18:21:53.857Z,46.60
2022-08-29T18:24:21.513Z,46.80
2022-08-29T18:26:49.542Z,47.00
2022-08-29T18:29:16.590Z,47.10
2022-08-29T18:32:01.911Z,47.30
2022-08-29T18:34:28.907Z,47.50
2022-08-29T18:36:55.787Z,47.80
2022-08-29T18:39:22.718Z,48.20
2022-08-29T18:41:49.550Z,48.60
2022-08-29T18:44:16.416Z,48.90
2022-08-29T18:46:48.140Z,49.20
2022-08-29T18:49:16.212Z,49.60
2022-08-29T18:51:43.625Z,49.90
2022-08-29T18:54:10.541Z,50.20
2022-08-29T18:56:38.826Z,50.60
2022-08-29T18:59:05.744Z,50.80
2022-08-29T19:01:33.314Z,51.00
2022-08-29T19:04:02.450Z,51.30
2022-08-29T19:06:29.340Z,51.60
2022-08-29T19:08:57.394Z,51.90
2022-08-29T19:11:25.719Z,52.20
2022-08-29T19:13:52.950Z,52.60
2022-08-29T19:16:23.757Z,52.60
2022-08-29T19:18:52.287Z,52.80
2022-08-29T19:21:19.764Z,53.20
2022-08-29T19:23:52.385Z,53.40
2022-08-29T19:26:34.182Z,53.80
2022-08-29T19:29:12.339Z,54.20
2022-08-29T19:31:41.312Z,54.40
2022-08-29T19:34:08.225Z,54.60
2022-08-29T19:36:35.083Z,54.70
2022-08-29T19:39:01.993Z,54.80
2022-08-29T19:41:28.951Z,54.90
2022-08-29T19:43:56.313Z,55.10
2022-08-29T19:46:27.500Z,55.30
2022-08-29T19:48:55.472Z,55.60
2022-08-29T19:51:25.478Z,55.70
2022-08-29T19:53:57.131Z,55.90
2022-08-29T19:56:38.382Z,56.20
2022-08-29T19:59:10.971Z,56.40
2022-08-29T20:01:48.621Z,56.60
2022-08-29T20:04:57.201Z,56.80
2022-08-29T20:07:59.071Z,57.00
2022-08-29T20:11:10.972Z,57.30
2022-08-29T20:14:15.686Z,58.10
2022-08-29T20:17:16.066Z,57.90
2022-08-29T20:20:14.004Z,58.10
2022-08-29T20:23:10.935Z,58.20
2022-08-29T20:25:54.292Z,58.50
2022-08-29T20:28:56.667Z,58.50
2022-08-29T20:32:12.639Z,58.50
2022-08-29T20:34:47.580Z,58.80
2022-08-29T20:37:38.386Z,59.00
2022-08-29T20:40:13.816Z,59.00
2022-08-29T20:42:40.841Z,59.20
2022-08-29T20:45:08.657Z,59.40
2022-08-29T20:47:36.195Z,59.50
2022-08-29T20:50:03.272Z,59.60
2022-08-29T20:52:30.272Z,59.80
2022-08-29T20:54:57.377Z,60.00
2022-08-29T20:57:24.376Z,60.30
2022-08-29T20:59:51.318Z,60.40
2022-08-29T21:02:18.341Z,60.70
2022-08-29T21:05:03.635Z,60.90
2022-08-29T21:07:30.630Z,61.10
2022-08-29T21:09:57.838Z,61.30
2022-08-29T21:12:27.291Z,61.70
2022-08-29T21:14:54.556Z,61.80
2022-08-29T21:17:21.478Z,62.00
2022-08-29T21:19:48.617Z,62.40
2022-08-29T21:22:15.617Z,62.50
2022-08-29T21:24:47.116Z,62.70
2022-08-29T21:27:43.972Z,62.90
2022-08-29T21:30:39.090Z,63.30
2022-08-29T21:33:20.576Z,63.80
2022-08-29T21:36:30.821Z,64.00
2022-08-29T21:39:27.973Z,64.50
2022-08-29T21:42:04.872Z,64.60
2022-08-29T21:44:31.851Z,65.30
2022-08-29T21:46:59.015Z,65.60
2022-08-29T21:49:27.106Z,66.00
2022-08-29T21:51:53.959Z,66.40
2022-08-29T21:54:20.893Z,66.70
2022-08-29T21:56:49.104Z,67.10
2022-08-29T21:59:17.654Z,67.40
2022-08-29T22:01:46.245Z,67.50
2022-08-29T22:04:33.991Z,67.80
2022-08-29T22:07:09.006Z,68.30
2022-08-29T22:09:36.787Z,68.10
2022-08-29T22:12:04.110Z,68.60
2022-08-29T22:14:49.435Z,68.70
2022-08-29T22:17:16.617Z,68.80
2022-08-29T22:19:43.623Z,69.30
2022-08-29T22:22:10.607Z,69.50
2022-08-29T22:24:37.449Z,69.60
2022-08-29T22:27:04.458Z,70.10
2022-08-29T22:29:31.461Z,70.30
2022-08-29T22:31:58.414Z,70.10
2022-08-29T22:34:26.077Z,70.20
2022-08-29T22:36:53.046Z,70.60
2022-08-29T22:39:19.846Z,70.60
2022-08-29T22:41:47.763Z,70.80
2022-08-29T22:47:02.300Z,70.90
2022-08-29T22:49:32.912Z,71.10
2022-08-29T22:52:00.387Z,71.60
2022-08-29T22:54:36.233Z,72.00
2022-08-29T22:57:17.808Z,72.10
2022-08-29T22:59:46.731Z,72.70
2022-08-29T23:02:14.272Z,73.10
2022-08-29T23:04:41.913Z,73.00
2022-08-29T23:07:11.910Z,73.20
2022-08-29T23:09:41.672Z,73.30
2022-08-29T23:12:11.542Z,73.50
2022-08-29T23:14:41.935Z,73.80
2022-08-29T23:17:09.563Z,74.10
2022-08-29T23:19:37.380Z,74.10
2022-08-29T23:22:09.743Z,74.40
2022-08-29T23:24:36.803Z,74.50
2022-08-29T23:27:03.873Z,74.50
2022-08-29T23:29:32.795Z,74.60
2022-08-29T23:32:01.230Z,74.40
2022-08-29T23:34:30.247Z,74.70
2022-08-29T23:36:57.138Z,74.90
2022-08-29T23:39:24.158Z,74.90
2022-08-29T23:41:51.524Z,74.80
2022-08-29T23:44:18.552Z,75.20
2022-08-29T23:46:45.555Z,75.30
2022-08-29T23:49:12.645Z,75.60
2022-08-29T23:51:39.541Z,75.50
2022-08-29T23:54:06.448Z,75.80
2022-08-29T23:56:33.391Z,75.80
2022-08-29T23:59:00.329Z,76.10
